createdAt,value
2019-03-08T00:01:45.810Z,84.90
2019-03-08T00:04:16.103Z,85.60
2019-03-08T00:06:46.635Z,85.20
2019-03-08T00:09:17.215Z,85.60
2019-03-08T00:11:47.639Z,85.30
2019-03-08T00:14:18.122Z,85.20
2019-03-08T00:16:48.585Z,85.10
2019-03-08T00:19:19.137Z,85.30
2019-03-08T00:21:49.395Z,85.00
2019-03-08T00:24:19.645Z,85.30
2019-03-08T00:26:50.336Z,85.20
2019-03-08T00:29:20.831Z,85.30
2019-03-08T00:31:51.427Z,85.60
2019-03-08T00:34:21.609Z,85.50
2019-03-08T00:36:51.792Z,84.80
2019-03-08T00:39:22.589Z,85.20
2019-03-08T00:41:53.041Z,85.30
2019-03-08T00:44:23.685Z,85.60
2019-03-08T00:46:54.374Z,85.60
2019-03-08T00:49:24.950Z,86.10
2019-03-08T00:51:54.822Z,86.70
2019-03-08T00:54:25.570Z,87.20
2019-03-08T00:56:55.441Z,87.20
2019-03-08T00:59:25.699Z,87.20
2019-03-08T01:01:56.031Z,87.20
2019-03-08T01:04:26.764Z,87.30
2019-03-08T01:06:57.268Z,88.30
2019-03-08T01:09:27.833Z,88.50
2019-03-08T01:11:58.463Z,88.70
2019-03-08T01:14:29.047Z,88.50
2019-03-08T01:16:59.527Z,88.60
2019-03-08T01:19:30.204Z,88.50
2019-03-08T01:22:00.807Z,88.30
2019-03-08T01:24:31.371Z,88.30
2019-03-08T01:27:01.923Z,88.80
2019-03-08T01:29:32.589Z,89.10
2019-03-08T01:32:02.828Z,90.20
2019-03-08T01:34:33.514Z,89.70
2019-03-08T01:37:04.305Z,90.20
2019-03-08T01:39:35.141Z,89.70
2019-03-08T01:42:05.563Z,89.50
2019-03-08T01:44:35.761Z,89.70
2019-03-08T01:47:06.123Z,89.70
2019-03-08T01:49:36.676Z,89.70
2019-03-08T01:52:07.250Z,89.90
2019-03-08T01:54:37.199Z,89.50
2019-03-08T01:57:07.769Z,89.30
2019-03-08T01:59:38.231Z,89.00
2019-03-08T02:02:10.421Z,89.00
2019-03-08T02:04:40.904Z,88.30
2019-03-08T02:07:29.846Z,87.70
2019-03-08T02:09:59.734Z,87.10
2019-03-08T02:12:30.445Z,86.60
2019-03-08T02:15:01.051Z,85.90
2019-03-08T02:17:31.576Z,85.00
2019-03-08T02:20:01.771Z,84.50
2019-03-08T02:22:32.403Z,83.80
2019-03-08T02:25:03.082Z,83.50
2019-03-08T02:27:33.773Z,83.30
2019-03-08T02:30:04.098Z,83.40
2019-03-08T02:32:34.796Z,83.60
2019-03-08T02:35:05.266Z,84.20
2019-03-08T02:37:35.070Z,84.50
2019-03-08T02:40:07.860Z,84.50
2019-03-08T02:42:38.535Z,84.90
2019-03-08T02:45:08.943Z,85.40
2019-03-08T02:47:39.589Z,85.10
2019-03-08T02:50:10.175Z,85.30
2019-03-08T02:52:40.374Z,85.20
2019-03-08T02:55:10.979Z,85.30
2019-03-08T02:57:41.475Z,85.30
2019-03-08T03:00:11.848Z,85.30
2019-03-08T03:02:42.474Z,84.80
2019-03-08T03:05:13.287Z,85.10
2019-03-08T03:07:43.969Z,84.50
2019-03-08T03:10:14.000Z,84.30
2019-03-08T03:12:44.779Z,84.20
2019-03-08T03:15:15.343Z,84.40
2019-03-08T03:17:46.049Z,84.60
2019-03-08T03:20:17.019Z,85.10
2019-03-08T03:22:47.239Z,85.80
2019-03-08T03:25:18.048Z,85.50
2019-03-08T03:27:48.577Z,84.90
2019-03-08T03:30:19.317Z,84.90
2019-03-08T03:32:49.237Z,85.50
2019-03-08T03:35:20.027Z,86.20
2019-03-08T03:37:50.717Z,86.90
2019-03-08T03:40:20.625Z,86.90
2019-03-08T03:42:51.198Z,86.90
2019-03-08T03:45:21.591Z,87.10
2019-03-08T03:47:52.047Z,87.10
2019-03-08T03:50:22.805Z,87.20
2019-03-08T03:52:53.373Z,87.70
2019-03-08T03:55:23.711Z,87.10
2019-03-08T03:57:54.179Z,87.80
2019-03-08T04:00:24.671Z,87.80
2019-03-08T04:02:55.507Z,88.60
2019-03-08T04:05:26.064Z,88.90
2019-03-08T04:07:56.675Z,88.60
2019-03-08T04:10:27.211Z,88.60
2019-03-08T04:12:57.637Z,88.20
2019-03-08T04:15:27.921Z,88.20
2019-03-08T04:17:58.611Z,87.60
2019-03-08T04:20:28.904Z,87.60
2019-03-08T04:22:59.463Z,88.30
2019-03-08T04:25:29.787Z,87.70
2019-03-08T04:28:00.361Z,88.40
2019-03-08T04:30:31.057Z,88.50
2019-03-08T04:33:00.969Z,88.70
2019-03-08T04:35:31.550Z,88.70
2019-03-08T04:38:01.729Z,88.50
2019-03-08T04:40:31.731Z,88.50
2019-03-08T04:43:02.484Z,88.60
2019-03-08T04:45:32.659Z,88.70
2019-03-08T04:48:02.527Z,89.00
2019-03-08T04:50:33.160Z,89.20
2019-03-08T04:53:03.447Z,89.50
2019-03-08T04:55:33.877Z,89.30
2019-03-08T04:58:04.141Z,89.60
2019-03-08T05:00:34.472Z,89.50
2019-03-08T05:03:05.105Z,89.50
2019-03-08T05:05:35.589Z,89.80
2019-03-08T05:08:06.386Z,89.70
2019-03-08T05:10:36.835Z,89.20
2019-03-08T05:13:06.331Z,89.50
2019-03-08T05:15:36.879Z,89.30
2019-03-08T05:18:07.167Z,88.90
2019-03-08T05:20:37.742Z,89.20
2019-03-08T05:23:08.453Z,89.40
2019-03-08T05:25:38.617Z,90.00
2019-03-08T05:28:09.026Z,90.20
2019-03-08T05:30:39.718Z,90.40
2019-03-08T05:33:10.303Z,90.60
2019-03-08T05:35:40.471Z,91.00
2019-03-08T05:38:10.695Z,91.20
2019-03-08T05:40:41.343Z,91.30
2019-03-08T05:43:11.871Z,91.20
2019-03-08T05:45:42.058Z,91.20
2019-03-08T05:48:12.659Z,91.20
2019-03-08T05:50:43.267Z,91.30
2019-03-08T05:53:13.801Z,91.30
2019-03-08T05:55:44.143Z,91.40
2019-03-08T05:58:14.349Z,91.50
2019-03-08T06:00:45.039Z,91.40
2019-03-08T06:03:15.611Z,91.30
2019-03-08T06:05:46.072Z,91.40
2019-03-08T06:08:16.529Z,91.80
2019-03-08T06:10:47.132Z,91.90
2019-03-08T06:13:17.639Z,91.90
2019-03-08T06:15:47.828Z,93.70
2019-03-08T06:18:18.315Z,96.30
2019-03-08T06:20:48.965Z,97.00
2019-03-08T06:23:19.244Z,96.90
2019-03-08T06:25:49.587Z,97.10
2019-03-08T06:28:20.360Z,97.30
2019-03-08T06:30:50.786Z,97.40
2019-03-08T06:33:21.086Z,97.80
2019-03-08T06:35:51.733Z,97.50
2019-03-08T06:38:22.521Z,97.50
2019-03-08T06:40:53.032Z,97.90
2019-03-08T06:43:23.333Z,97.90
2019-03-08T06:45:53.887Z,98.20
2019-03-08T06:48:24.482Z,98.70
2019-03-08T06:50:54.406Z,98.80
2019-03-08T06:53:25.131Z,98.90
2019-03-08T06:55:56.209Z,99.80
2019-03-08T06:58:38.898Z,99.70
2019-03-08T07:01:15.762Z,99.50
2019-03-08T07:03:48.431Z,99.90
2019-03-08T07:06:18.933Z,99.90
2019-03-08T07:08:49.215Z,99.90
2019-03-08T07:11:19.493Z,99.70
2019-03-08T07:13:50.179Z,99.60
2019-03-08T07:16:20.346Z,99.30
2019-03-08T07:18:51.862Z,99.20
2019-03-08T07:21:28.120Z,99.00
2019-03-08T07:24:07.125Z,99.00
2019-03-08T07:27:05.601Z,99.00
2019-03-08T07:29:52.511Z,99.00
2019-03-08T07:32:32.441Z,98.50
2019-03-08T07:35:37.159Z,98.30
2019-03-08T07:38:24.885Z,98.20
2019-03-08T07:41:17.317Z,98.70
2019-03-08T07:44:06.674Z,98.20
2019-03-08T07:46:56.151Z,98.60
2019-03-08T07:50:00.539Z,98.30
2019-03-08T07:52:49.389Z,97.70
2019-03-08T07:55:48.282Z,97.60
2019-03-08T07:58:52.678Z,97.10
2019-03-08T08:01:51.039Z,96.40
2019-03-08T08:04:52.691Z,96.60
2019-03-08T08:07:44.777Z,95.70
2019-03-08T08:10:30.175Z,95.90
2019-03-08T08:13:34.586Z,95.40
2019-03-08T08:16:22.136Z,94.80
2019-03-08T08:19:02.968Z,94.70
2019-03-08T08:22:04.517Z,93.80
2019-03-08T08:24:59.803Z,94.40
2019-03-08T08:27:45.994Z,93.80
2019-03-08T08:30:34.950Z,94.00
2019-03-08T08:33:20.520Z,94.50
2019-03-08T08:36:08.437Z,94.10
2019-03-08T08:39:04.257Z,93.00
2019-03-08T08:41:41.548Z,92.20
2019-03-08T08:44:33.157Z,91.80
2019-03-08T08:47:32.541Z,91.20
2019-03-08T08:50:30.807Z,91.70
2019-03-08T08:53:18.942Z,90.50
2019-03-08T08:55:56.943Z,88.70
2019-03-08T08:58:34.333Z,87.40
2019-03-08T09:01:26.664Z,88.40
2019-03-08T09:04:06.707Z,87.80
2019-03-08T09:06:59.041Z,86.70
2019-03-08T09:09:47.273Z,85.30
2019-03-08T09:12:31.634Z,84.60
2019-03-08T09:15:21.800Z,86.00
2019-03-08T09:18:07.694Z,85.40
2019-03-08T09:21:02.358Z,81.50
2019-03-08T09:23:51.631Z,78.90
2019-03-08T09:26:56.035Z,77.40
2019-03-08T09:29:48.251Z,77.70
2019-03-08T09:32:43.751Z,77.90
2019-03-08T09:35:23.518Z,76.70
2019-03-08T09:38:17.477Z,75.50
2019-03-08T09:41:25.148Z,74.60
2019-03-08T09:44:08.472Z,74.50
2019-03-08T09:47:15.308Z,75.30
2019-03-08T09:50:01.216Z,76.10
2019-03-08T09:52:49.647Z,75.10
2019-03-08T09:55:28.979Z,74.00
2019-03-08T09:58:07.591Z,75.50
2019-03-08T10:00:49.279Z,74.60
2019-03-08T10:03:53.697Z,74.60
2019-03-08T10:06:32.519Z,73.50
2019-03-08T10:09:18.394Z,75.40
2019-03-08T10:11:59.058Z,73.90
2019-03-08T10:14:48.518Z,72.10
2019-03-08T10:17:50.177Z,73.40
2019-03-08T10:20:51.599Z,72.30
2019-03-08T10:23:46.891Z,73.10
2019-03-08T10:26:35.842Z,74.00
2019-03-08T10:29:28.077Z,74.60
2019-03-08T10:32:37.543Z,73.50
2019-03-08T10:35:42.103Z,73.70
2019-03-08T10:38:22.939Z,72.70
2019-03-08T10:41:12.532Z,74.10
2019-03-08T10:43:58.408Z,72.00
2019-03-08T10:46:47.783Z,72.80
2019-03-08T10:49:34.181Z,70.90
2019-03-08T10:52:17.921Z,70.60
2019-03-08T10:55:06.339Z,71.60
2019-03-08T10:57:54.390Z,69.50
2019-03-08T11:00:52.944Z,70.80
2019-03-08T11:03:36.525Z,70.30
2019-03-08T11:06:44.663Z,70.20
2019-03-08T11:09:37.097Z,70.20
2019-03-08T11:12:23.678Z,70.90
2019-03-08T11:15:11.224Z,70.90
2019-03-08T11:18:12.975Z,69.60
2019-03-08T11:21:02.326Z,70.60
2019-03-08T11:24:09.408Z,71.00
2019-03-08T11:27:05.210Z,69.70
2019-03-08T11:29:44.631Z,65.80
2019-03-08T11:32:33.994Z,64.30
2019-03-08T11:35:30.403Z,62.40
2019-03-08T11:38:12.508Z,63.50
2019-03-08T11:41:16.503Z,63.50
2019-03-08T11:44:18.654Z,61.90
2019-03-08T11:47:06.275Z,59.40
2019-03-08T11:49:54.737Z,59.40
2019-03-08T11:52:59.014Z,59.50
2019-03-08T11:55:42.814Z,59.60
2019-03-08T11:58:38.366Z,58.70
2019-03-08T12:01:28.731Z,60.90
2019-03-08T12:04:17.996Z,62.50
2019-03-08T12:06:54.672Z,62.80
2019-03-08T12:09:42.496Z,61.80
2019-03-08T12:12:30.535Z,61.90
2019-03-08T12:15:14.603Z,60.40
2019-03-08T12:18:07.399Z,60.40
2019-03-08T12:20:50.525Z,58.80
2019-03-08T12:23:29.646Z,60.00
2019-03-08T12:26:25.059Z,59.00
2019-03-08T12:29:04.498Z,59.00
2019-03-08T12:32:02.745Z,59.00
2019-03-08T12:34:51.088Z,58.80
2019-03-08T12:37:39.845Z,58.50
2019-03-08T12:40:33.200Z,59.00
2019-03-08T12:43:22.139Z,58.30
2019-03-08T12:45:57.693Z,56.90
2019-03-08T12:48:46.037Z,56.70
2019-03-08T12:51:44.402Z,56.80
2019-03-08T12:54:32.328Z,58.80
2019-03-08T12:57:33.966Z,57.80
2019-03-08T13:00:14.828Z,59.10
2019-03-08T13:03:18.510Z,56.80
2019-03-08T13:06:01.131Z,57.10
2019-03-08T13:08:53.251Z,55.80
2019-03-08T13:11:33.477Z,54.00
2019-03-08T13:14:03.533Z,54.20
2019-03-08T13:16:33.659Z,53.80
2019-03-08T13:19:04.270Z,53.10
2019-03-08T13:21:34.997Z,53.00
2019-03-08T13:24:07.114Z,51.70
2019-03-08T13:26:37.832Z,50.80
2019-03-08T13:29:08.438Z,51.20
2019-03-08T13:31:38.971Z,51.20
2019-03-08T13:34:09.555Z,51.20
2019-03-08T13:36:40.102Z,50.60
2019-03-08T13:39:11.014Z,49.70
2019-03-08T13:41:41.612Z,48.60
2019-03-08T13:44:11.902Z,49.40
2019-03-08T13:46:42.089Z,51.00
2019-03-08T13:49:12.826Z,50.60
2019-03-08T13:51:43.619Z,51.40
2019-03-08T13:54:13.892Z,51.90
2019-03-08T13:56:43.810Z,51.90
2019-03-08T13:59:14.041Z,52.10
2019-03-08T14:01:44.834Z,52.20
2019-03-08T14:04:15.566Z,52.00
2019-03-08T14:06:46.083Z,53.50
2019-03-08T14:09:16.296Z,52.20
2019-03-08T14:11:46.431Z,52.10
2019-03-08T14:14:17.066Z,53.50
2019-03-08T14:16:47.976Z,54.00
2019-03-08T14:19:18.457Z,53.10
2019-03-08T14:21:48.396Z,52.40
2019-03-08T14:24:19.054Z,51.80
2019-03-08T14:26:49.624Z,52.50
2019-03-08T14:29:22.340Z,52.10
2019-03-08T14:31:56.570Z,51.30
2019-03-08T14:34:27.321Z,51.80
2019-03-08T14:36:57.905Z,52.40
2019-03-08T14:39:30.072Z,52.60
2019-03-08T14:42:19.376Z,54.20
2019-03-08T14:44:53.086Z,54.50
2019-03-08T14:47:35.380Z,53.10
2019-03-08T14:50:06.544Z,52.90
2019-03-08T14:52:36.731Z,52.40
2019-03-08T14:55:08.884Z,53.30
2019-03-08T14:57:39.513Z,53.50
2019-03-08T15:00:18.273Z,54.90
2019-03-08T15:02:48.762Z,55.40
2019-03-08T15:05:20.388Z,55.10
2019-03-08T15:07:50.881Z,55.40
2019-03-08T15:10:23.272Z,55.50
2019-03-08T15:12:53.448Z,55.70
2019-03-08T15:15:23.647Z,56.00
2019-03-08T15:17:55.413Z,56.00
2019-03-08T15:20:26.133Z,60.80
2019-03-08T15:22:56.709Z,63.60
2019-03-08T15:25:29.671Z,65.00
2019-03-08T15:27:59.243Z,67.00
2019-03-08T15:30:29.800Z,69.00
2019-03-08T15:33:00.492Z,70.00
2019-03-08T15:35:31.059Z,72.80
2019-03-08T15:38:01.679Z,74.20
2019-03-08T15:40:33.347Z,75.40
2019-03-08T15:43:03.982Z,76.70
2019-03-08T15:45:34.956Z,78.60
2019-03-08T15:48:05.548Z,78.80
2019-03-08T15:50:36.138Z,79.80
2019-03-08T15:53:06.362Z,80.80
2019-03-08T15:55:37.054Z,81.30
2019-03-08T15:58:07.615Z,82.40
2019-03-08T16:00:37.704Z,82.80
2019-03-08T16:03:08.135Z,83.40
2019-03-08T16:05:38.630Z,82.50
2019-03-08T16:08:08.582Z,83.10
2019-03-08T16:10:39.206Z,82.90
2019-03-08T16:13:09.283Z,82.40
2019-03-08T16:15:39.774Z,82.50
2019-03-08T16:18:09.696Z,82.70
2019-03-08T16:20:40.392Z,82.70
2019-03-08T16:23:11.013Z,83.40
2019-03-08T16:25:47.418Z,82.90
2019-03-08T16:28:13.329Z,83.40
2019-03-08T16:30:47.445Z,83.20
2019-03-08T16:33:23.837Z,83.30
2019-03-08T16:36:07.052Z,82.70
2019-03-08T16:39:06.747Z,82.10
2019-03-08T16:41:54.266Z,81.00
2019-03-08T16:44:36.888Z,81.20
2019-03-08T16:47:29.199Z,81.00
2019-03-08T16:50:10.231Z,79.60
2019-03-08T16:52:59.225Z,80.30
2019-03-08T16:55:38.446Z,79.60
2019-03-08T16:58:31.400Z,79.10
2019-03-08T17:01:14.416Z,78.40
2019-03-08T17:04:08.282Z,78.60
2019-03-08T17:06:56.310Z,77.20
2019-03-08T17:09:32.980Z,77.70
2019-03-08T17:12:09.447Z,77.80
2019-03-08T17:15:04.436Z,78.30
2019-03-08T17:17:52.166Z,78.20
2019-03-08T17:20:44.290Z,77.40
2019-03-08T17:23:32.119Z,77.90
2019-03-08T17:26:24.336Z,77.90
2019-03-08T17:29:06.032Z,78.40
2019-03-08T17:31:55.022Z,79.80
2019-03-08T17:34:45.652Z,79.80
2019-03-08T17:37:40.655Z,81.10
2019-03-08T17:40:23.548Z,81.50
2019-03-08T17:43:15.820Z,81.90
2019-03-08T17:46:05.330Z,82.40
2019-03-08T17:48:44.192Z,82.40
2019-03-08T17:51:27.820Z,82.90
2019-03-08T17:54:09.632Z,82.40
2019-03-08T17:57:04.795Z,82.30
2019-03-08T18:00:06.036Z,81.70
2019-03-08T18:03:01.644Z,81.20
2019-03-08T18:05:49.364Z,81.00
2019-03-08T18:08:33.200Z,81.20
2019-03-08T18:11:30.045Z,81.80
2019-03-08T18:14:14.480Z,82.40
2019-03-08T18:17:09.791Z,83.00
2019-03-08T18:19:55.465Z,83.20
2019-03-08T18:22:35.806Z,83.30
2019-03-08T18:25:12.997Z,83.70
2019-03-08T18:28:15.151Z,82.30
2019-03-08T18:31:03.281Z,82.80
2019-03-08T18:33:46.200Z,81.80
2019-03-08T18:36:36.982Z,81.80
2019-03-08T18:39:36.390Z,82.00
2019-03-08T18:42:34.544Z,81.00
2019-03-08T18:45:23.466Z,81.30
2019-03-08T18:48:15.776Z,80.10
2019-03-08T18:51:05.693Z,81.80
2019-03-08T18:53:48.871Z,81.40
2019-03-08T18:56:53.638Z,82.00
2019-03-08T18:59:30.409Z,82.20
2019-03-08T19:02:19.360Z,82.10
2019-03-08T19:05:07.697Z,81.80
2019-03-08T19:07:51.224Z,81.50
2019-03-08T19:10:48.876Z,82.20
2019-03-08T19:13:32.922Z,81.00
2019-03-08T19:16:25.230Z,81.50
2019-03-08T19:19:13.478Z,81.20
2019-03-08T19:22:08.668Z,81.60
2019-03-08T19:24:44.214Z,82.40
2019-03-08T19:27:24.530Z,81.90
2019-03-08T19:30:19.871Z,81.90
2019-03-08T19:32:57.159Z,82.10
2019-03-08T19:35:46.722Z,81.90
2019-03-08T19:38:35.678Z,82.00
2019-03-08T19:41:12.436Z,82.50
2019-03-08T19:44:01.444Z,82.40
2019-03-08T19:46:50.768Z,82.40
2019-03-08T19:49:31.418Z,82.70
2019-03-08T19:52:11.890Z,82.70
2019-03-08T19:55:07.398Z,82.90
2019-03-08T19:57:45.780Z,83.60
2019-03-08T20:00:53.892Z,84.40
2019-03-08T20:03:30.860Z,85.30
2019-03-08T20:06:10.612Z,84.90
2019-03-08T20:09:08.984Z,85.10
2019-03-08T20:11:50.365Z,84.10
2019-03-08T20:14:47.896Z,83.70
2019-03-08T20:17:35.518Z,83.70
2019-03-08T20:20:25.393Z,84.00
2019-03-08T20:23:27.340Z,83.90
2019-03-08T20:26:25.106Z,84.90
2019-03-08T20:29:20.499Z,86.10
2019-03-08T20:32:18.660Z,86.70
2019-03-08T20:35:13.957Z,87.80
2019-03-08T20:38:05.666Z,89.30
2019-03-08T20:40:57.995Z,89.30
2019-03-08T20:43:33.336Z,89.60
2019-03-08T20:46:12.478Z,90.50
2019-03-08T20:48:42.660Z,90.70
2019-03-08T20:51:13.387Z,90.30
2019-03-08T20:53:43.338Z,90.10
2019-03-08T20:56:13.576Z,91.00
2019-03-08T20:58:43.751Z,90.60
2019-03-08T21:01:14.442Z,90.90
2019-03-08T21:03:44.673Z,91.20
2019-03-08T21:06:14.248Z,91.50
2019-03-08T21:08:44.719Z,91.90
2019-03-08T21:11:15.428Z,92.70
2019-03-08T21:13:46.070Z,92.70
2019-03-08T21:16:15.980Z,93.00
2019-03-08T21:18:46.180Z,93.60
2019-03-08T21:21:16.743Z,93.70
2019-03-08T21:23:47.327Z,93.90
2019-03-08T21:26:17.860Z,93.90
2019-03-08T21:28:48.547Z,93.90
2019-03-08T21:31:18.681Z,93.80
2019-03-08T21:33:49.267Z,94.10
2019-03-08T21:36:19.622Z,94.10
2019-03-08T21:38:49.749Z,94.00
2019-03-08T21:41:20.387Z,93.50
2019-03-08T21:43:50.696Z,93.70
2019-03-08T21:46:21.066Z,93.40
2019-03-08T21:48:51.253Z,93.00
2019-03-08T21:51:22.978Z,93.10
2019-03-08T21:53:53.683Z,93.00
2019-03-08T21:56:24.233Z,93.30
2019-03-08T21:58:54.473Z,93.30
2019-03-08T22:01:24.737Z,93.10
2019-03-08T22:04:02.362Z,93.00
2019-03-08T22:06:32.887Z,92.90
2019-03-08T22:09:22.224Z,92.70
2019-03-08T22:11:52.507Z,92.60
2019-03-08T22:14:22.883Z,92.60
2019-03-08T22:16:53.103Z,92.70
2019-03-08T22:19:22.996Z,92.60
2019-03-08T22:21:53.737Z,92.70
2019-03-08T22:24:23.924Z,92.70
2019-03-08T22:26:54.159Z,92.70
2019-03-08T22:29:24.727Z,92.70
2019-03-08T22:31:55.245Z,92.70
2019-03-08T22:34:25.921Z,92.60
2019-03-08T22:36:56.132Z,92.70
2019-03-08T22:39:26.715Z,92.70
2019-03-08T22:41:56.983Z,92.70
2019-03-08T22:44:27.270Z,92.70
2019-03-08T22:46:57.776Z,92.70
2019-03-08T22:49:28.252Z,92.60
2019-03-08T22:51:58.812Z,92.70
2019-03-08T22:54:29.443Z,92.60
2019-03-08T22:56:59.779Z,92.70
2019-03-08T22:59:30.442Z,92.60
2019-03-08T23:02:07.221Z,92.70
2019-03-08T23:04:37.836Z,93.20
2019-03-08T23:07:08.139Z,93.10
2019-03-08T23:09:39.080Z,92.90
2019-03-08T23:12:09.344Z,92.70
2019-03-08T23:14:39.800Z,92.60
2019-03-08T23:17:10.427Z,92.30
2019-03-08T23:19:40.397Z,92.20
2019-03-08T23:22:10.958Z,92.00
2019-03-08T23:24:41.193Z,92.00
2019-03-08T23:27:28.568Z,91.90
2019-03-08T23:30:06.078Z,91.80
2019-03-08T23:32:42.834Z,91.90
2019-03-08T23:35:13.519Z,92.20
2019-03-08T23:37:44.072Z,92.40
2019-03-08T23:40:15.025Z,92.40
2019-03-08T23:42:45.579Z,92.40
2019-03-08T23:45:15.753Z,92.70
2019-03-08T23:47:46.409Z,92.70
2019-03-08T23:50:16.669Z,92.90
2019-03-08T23:52:46.961Z,93.00
2019-03-08T23:55:17.574Z,93.10
2019-03-08T23:57:48.330Z,93.40
